sensor_id;sensor_type;location;lat;lon;timestamp;pressure;altitude;pressure_sealevel;temperature;humidity
22550;BME280;11441;57.164;-2.120;2023-07-13T00:02:24;100260.03;;;14.98;100.00
22550;BME280;11441;57.164;-2.120;2023-07-13T00:04:51;100250.16;;;14.97;100.00
22550;BME280;11441;57.164;-2.120;2023-07-13T00:07:37;100258.47;;;14.97;100.00
22550;BME280;11441;57.164;-2.120;2023-07-13T00:10:05;100250.56;;;14.92;100.00
22550;BME280;11441;57.164;-2.120;2023-07-13T00:12:35;100247.38;;;14.97;100.00
22550;BME280;11441;57.164;-2.120;2023-07-13T00:15:10;100252.94;;;14.93;100.00
22550;BME280;11441;57.164;-2.120;2023-07-13T00:17:39;100251.34;;;14.88;100.00
22550;BME280;11441;57.164;-2.120;2023-07-13T00:20:06;100253.72;;;14.79;100.00
22550;BME280;11441;57.164;-2.120;2023-07-13T00:22:34;100237.47;;;14.63;100.00
22550;BME280;11441;57.164;-2.120;2023-07-13T00:25:01;100245.00;;;14.66;100.00
22550;BME280;11441;57.164;-2.120;2023-07-13T00:27:27;100250.94;;;14.65;100.00
22550;BME280;11441;57.164;-2.120;2023-07-13T00:29:56;100245.78;;;14.60;100.00
22550;BME280;11441;57.164;-2.120;2023-07-13T00:32:24;100234.69;;;14.63;100.00
22550;BME280;11441;57.164;-2.120;2023-07-13T00:34:54;100240.25;;;14.74;100.00
22550;BME280;11441;57.164;-2.120;2023-07-13T00:37:40;100250.53;;;14.74;100.00
22550;BME280;11441;57.164;-2.120;2023-07-13T00:40:07;100242.63;;;14.72;100.00
22550;BME280;11441;57.164;-2.120;2023-07-13T00:42:34;100237.47;;;14.67;100.00
22550;BME280;11441;57.164;-2.120;2023-07-13T00:47:39;100252.84;;;14.57;100.00
22550;BME280;11441;57.164;-2.120;2023-07-13T00:50:10;100250.13;;;14.61;100.00
22550;BME280;11441;57.164;-2.120;2023-07-13T00:52:41;100260.81;;;14.59;100.00
22550;BME280;11441;57.164;-2.120;2023-07-13T00:55:09;100249.28;;;14.57;100.00
22550;BME280;11441;57.164;-2.120;2023-07-13T00:57:37;100248.47;;;14.45;100.00
22550;BME280;11441;57.164;-2.120;2023-07-13T01:00:08;100248.47;;;14.49;100.00
22550;BME280;11441;57.164;-2.120;2023-07-13T01:02:37;100245.28;;;14.40;100.00
22550;BME280;11441;57.164;-2.120;2023-07-13T01:05:20;100252.44;;;14.48;100.00
22550;BME280;11441;57.164;-2.120;2023-07-13T01:07:49;100246.91;;;14.44;100.00
22550;BME280;11441;57.164;-2.120;2023-07-13T01:10:24;100243.31;;;14.40;100.00
22550;BME280;11441;57.164;-2.120;2023-07-13T01:12:52;100237.75;;;14.33;100.00
22550;BME280;11441;57.164;-2.120;2023-07-13T01:15:43;100245.66;;;14.24;100.00
22550;BME280;11441;57.164;-2.120;2023-07-13T01:18:14;100244.06;;;14.26;100.00
22550;BME280;11441;57.164;-2.120;2023-07-13T01:20:50;100248.78;;;14.19;100.00
22550;BME280;11441;57.164;-2.120;2023-07-13T01:23:17;100240.47;;;14.15;100.00
22550;BME280;11441;57.164;-2.120;2023-07-13T01:25:47;100246.00;;;14.08;100.00
22550;BME280;11441;57.164;-2.120;2023-07-13T01:28:14;100250.00;;;14.21;100.00
22550;BME280;11441;57.164;-2.120;2023-07-13T01:30:45;100249.91;;;14.03;100.00
22550;BME280;11441;57.164;-2.120;2023-07-13T01:33:17;100257.84;;;14.08;100.00
22550;BME280;11441;57.164;-2.120;2023-07-13T01:35:45;100256.22;;;14.00;100.00
22550;BME280;11441;57.164;-2.120;2023-07-13T01:38:17;100261.78;;;14.00;100.00
22550;BME280;11441;57.164;-2.120;2023-07-13T01:40:44;100247.88;;;13.89;100.00
22550;BME280;11441;57.164;-2.120;2023-07-13T01:43:11;100250.25;;;13.87;100.00
22550;BME280;11441;57.164;-2.120;2023-07-13T01:45:38;100257.34;;;13.81;100.00
22550;BME280;11441;57.164;-2.120;2023-07-13T01:48:05;100240.31;;;13.79;100.00
22550;BME280;11441;57.164;-2.120;2023-07-13T01:50:35;100248.28;;;13.91;100.00
22550;BME280;11441;57.164;-2.120;2023-07-13T01:53:21;100243.59;;;14.03;100.00
22550;BME280;11441;57.164;-2.120;2023-07-13T01:55:48;100250.75;;;14.04;100.00
22550;BME280;11441;57.164;-2.120;2023-07-13T01:58:15;100249.13;;;14.03;100.00
22550;BME280;11441;57.164;-2.120;2023-07-13T02:00:42;100252.31;;;14.05;100.00
22550;BME280;11441;57.164;-2.120;2023-07-13T02:03:09;100251.53;;;14.11;100.00
22550;BME280;11441;57.164;-2.120;2023-07-13T02:05:36;100256.69;;;14.09;100.00
22550;BME280;11441;57.164;-2.120;2023-07-13T02:08:03;100248.38;;;14.09;100.00
22550;BME280;11441;57.164;-2.120;2023-07-13T02:10:30;100254.72;;;14.21;100.00
22550;BME280;11441;57.164;-2.120;2023-07-13T02:12:57;100256.34;;;14.22;100.00
22550;BME280;11441;57.164;-2.120;2023-07-13T02:15:24;100257.94;;;14.30;100.00
22550;BME280;11441;57.164;-2.120;2023-07-13T02:17:51;100264.66;;;14.29;100.00
22550;BME280;11441;57.164;-2.120;2023-07-13T02:20:18;100253.97;;;14.31;100.00
22550;BME280;11441;57.164;-2.120;2023-07-13T02:22:45;100261.88;;;14.25;100.00
22550;BME280;11441;57.164;-2.120;2023-07-13T02:25:12;100257.53;;;14.28;100.00
22550;BME280;11441;57.164;-2.120;2023-07-13T02:27:39;100262.66;;;14.19;100.00
22550;BME280;11441;57.164;-2.120;2023-07-13T02:30:24;100259.50;;;14.24;100.00
22550;BME280;11441;57.164;-2.120;2023-07-13T02:32:53;100256.72;;;14.24;100.00
22550;BME280;11441;57.164;-2.120;2023-07-13T02:35:20;100262.28;;;14.24;100.00
22550;BME280;11441;57.164;-2.120;2023-07-13T02:37:47;100249.59;;;14.23;100.00
22550;BME280;11441;57.164;-2.120;2023-07-13T02:40:14;100259.50;;;14.27;100.00
22550;BME280;11441;57.164;-2.120;2023-07-13T02:42:41;100257.91;;;14.26;100.00
22550;BME280;11441;57.164;-2.120;2023-07-13T02:45:09;100262.66;;;14.22;100.00
22550;BME280;11441;57.164;-2.120;2023-07-13T02:47:36;100269.41;;;14.21;100.00
22550;BME280;11441;57.164;-2.120;2023-07-13T02:50:03;100267.41;;;14.25;100.00
22550;BME280;11441;57.164;-2.120;2023-07-13T02:52:31;100271.00;;;14.33;100.00
22550;BME280;11441;57.164;-2.120;2023-07-13T02:54:58;100271.00;;;14.33;100.00
22550;BME280;11441;57.164;-2.120;2023-07-13T02:57:25;100270.59;;;14.31;100.00
22550;BME280;11441;57.164;-2.120;2023-07-13T02:59:52;100262.69;;;14.33;100.00
22550;BME280;11441;57.164;-2.120;2023-07-13T03:02:19;100265.88;;;14.35;100.00
22550;BME280;11441;57.164;-2.120;2023-07-13T03:04:47;100260.75;;;14.44;100.00
22550;BME280;11441;57.164;-2.120;2023-07-13T03:07:13;100264.31;;;14.41;100.00
22550;BME280;11441;57.164;-2.120;2023-07-13T03:09:43;100263.88;;;14.32;100.00
22550;BME280;11441;57.164;-2.120;2023-07-13T03:12:10;100251.63;;;14.40;100.00
22550;BME280;11441;57.164;-2.120;2023-07-13T03:14:37;100256.38;;;14.47;100.00
22550;BME280;11441;57.164;-2.120;2023-07-13T03:17:05;100267.06;;;14.38;100.00
22550;BME280;11441;57.164;-2.120;2023-07-13T03:19:36;100262.31;;;14.38;100.00
22550;BME280;11441;57.164;-2.120;2023-07-13T03:22:04;100264.69;;;14.43;100.00
22550;BME280;11441;57.164;-2.120;2023-07-13T03:24:33;100260.34;;;14.39;100.00
22550;BME280;11441;57.164;-2.120;2023-07-13T03:27:22;100259.97;;;14.51;100.00
22550;BME280;11441;57.164;-2.120;2023-07-13T03:29:50;100263.91;;;14.39;100.00
22550;BME280;11441;57.164;-2.120;2023-07-13T03:32:17;100263.91;;;14.39;100.00
22550;BME280;11441;57.164;-2.120;2023-07-13T03:34:44;100269.06;;;14.41;100.00
22550;BME280;11441;57.164;-2.120;2023-07-13T03:37:31;100273.00;;;14.47;100.00
22550;BME280;11441;57.164;-2.120;2023-07-13T03:39:58;100280.94;;;14.45;100.00
22550;BME280;11441;57.164;-2.120;2023-07-13T03:42:26;100280.53;;;14.39;100.00
22550;BME280;11441;57.164;-2.120;2023-07-13T03:44:53;100282.13;;;14.44;100.00
22550;BME280;11441;57.164;-2.120;2023-07-13T03:47:22;100280.56;;;14.50;100.00
22550;BME280;11441;57.164;-2.120;2023-07-13T03:50:07;100284.91;;;14.44;100.00
22550;BME280;11441;57.164;-2.120;2023-07-13T03:52:34;100287.25;;;14.45;100.00
22550;BME280;11441;57.164;-2.120;2023-07-13T03:55:01;100290.47;;;14.55;100.00
22550;BME280;11441;57.164;-2.120;2023-07-13T03:57:29;100285.69;;;14.44;100.00
22550;BME280;11441;57.164;-2.120;2023-07-13T03:59:57;100284.47;;;14.45;100.00
22550;BME280;11441;57.164;-2.120;2023-07-13T04:02:24;100286.44;;;14.38;100.00
22550;BME280;11441;57.164;-2.120;2023-07-13T04:04:51;100284.06;;;14.32;100.00
22550;BME280;11441;57.164;-2.120;2023-07-13T04:07:17;100285.28;;;14.35;100.00
22550;BME280;11441;57.164;-2.120;2023-07-13T04:09:45;100288.81;;;14.28;100.00
22550;BME280;11441;57.164;-2.120;2023-07-13T04:12:12;100291.22;;;14.37;100.00
22550;BME280;11441;57.164;-2.120;2023-07-13T04:14:39;100293.16;;;14.29;100.00
22550;BME280;11441;57.164;-2.120;2023-07-13T04:17:06;100290.78;;;14.31;100.00
22550;BME280;11441;57.164;-2.120;2023-07-13T04:19:33;100297.09;;;14.21;100.00
22550;BME280;11441;57.164;-2.120;2023-07-13T04:22:00;100297.91;;;14.36;100.00
22550;BME280;11441;57.164;-2.120;2023-07-13T04:24:27;100286.84;;;14.36;100.00
22550;BME280;11441;57.164;-2.120;2023-07-13T04:26:54;100287.63;;;14.37;100.00
22550;BME280;11441;57.164;-2.120;2023-07-13T04:29:39;100295.91;;;14.29;100.00
22550;BME280;11441;57.164;-2.120;2023-07-13T04:32:06;100291.94;;;14.16;100.00
22550;BME280;11441;57.164;-2.120;2023-07-13T04:34:34;100291.13;;;14.23;100.00
22550;BME280;11441;57.164;-2.120;2023-07-13T04:37:01;100296.28;;;14.21;100.00
22550;BME280;11441;57.164;-2.120;2023-07-13T04:39:28;100291.47;;;14.10;100.00
22550;BME280;11441;57.164;-2.120;2023-07-13T04:42:13;100288.34;;;14.15;100.00
22550;BME280;11441;57.164;-2.120;2023-07-13T04:44:41;100301.78;;;14.13;100.00
22550;BME280;11441;57.164;-2.120;2023-07-13T04:47:08;100304.56;;;14.13;100.00
22550;BME280;11441;57.164;-2.120;2023-07-13T04:49:53;100306.19;;;14.25;100.00
22550;BME280;11441;57.164;-2.120;2023-07-13T04:52:19;100314.13;;;14.30;100.00
22550;BME280;11441;57.164;-2.120;2023-07-13T04:54:46;100310.53;;;14.23;100.00
22550;BME280;11441;57.164;-2.120;2023-07-13T04:57:13;100319.16;;;14.07;100.00
22550;BME280;11441;57.164;-2.120;2023-07-13T04:59:40;100323.56;;;14.15;100.00
22550;BME280;11441;57.164;-2.120;2023-07-13T05:02:07;100304.97;;;14.19;100.00
22550;BME280;11441;57.164;-2.120;2023-07-13T05:04:34;100312.13;;;14.24;100.00
22550;BME280;11441;57.164;-2.120;2023-07-13T05:07:01;100303.03;;;14.27;100.00
22550;BME280;11441;57.164;-2.120;2023-07-13T05:09:28;100313.75;;;14.36;100.00
22550;BME280;11441;57.164;-2.120;2023-07-13T05:11:55;100310.22;;;14.39;100.00
22550;BME280;11441;57.164;-2.120;2023-07-13T05:14:22;100315.75;;;14.35;100.00
22550;BME280;11441;57.164;-2.120;2023-07-13T05:16:49;100319.63;;;14.20;100.00
22550;BME280;11441;57.164;-2.120;2023-07-13T05:19:16;100326.03;;;14.38;100.00
22550;BME280;11441;57.164;-2.120;2023-07-13T05:21:43;100320.13;;;14.47;100.00
22550;BME280;11441;57.164;-2.120;2023-07-13T05:24:09;100330.41;;;14.50;100.00
22550;BME280;11441;57.164;-2.120;2023-07-13T05:26:50;100322.19;;;14.64;100.00
22550;BME280;11441;57.164;-2.120;2023-07-13T05:29:17;100322.56;;;14.59;100.00
22550;BME280;11441;57.164;-2.120;2023-07-13T05:31:44;100322.50;;;14.56;100.00
22550;BME280;11441;57.164;-2.120;2023-07-13T05:34:11;100321.41;;;14.78;100.00
22550;BME280;11441;57.164;-2.120;2023-07-13T05:36:38;100317.88;;;14.78;100.00
22550;BME280;11441;57.164;-2.120;2023-07-13T05:39:05;100325.78;;;14.79;100.00
22550;BME280;11441;57.164;-2.120;2023-07-13T05:41:32;100341.63;;;14.75;100.00
22550;BME280;11441;57.164;-2.120;2023-07-13T05:43:59;100329.75;;;14.85;100.00
22550;BME280;11441;57.164;-2.120;2023-07-13T05:46:26;100334.53;;;14.99;100.00
22550;BME280;11441;57.164;-2.120;2023-07-13T05:48:53;100334.50;;;14.96;100.00
22550;BME280;11441;57.164;-2.120;2023-07-13T05:51:20;100336.13;;;14.97;100.00
22550;BME280;11441;57.164;-2.120;2023-07-13T05:53:47;100342.03;;;14.88;100.00
22550;BME280;11441;57.164;-2.120;2023-07-13T05:56:14;100339.66;;;14.83;100.00
22550;BME280;11441;57.164;-2.120;2023-07-13T05:58:40;100352.75;;;14.89;100.00
22550;BME280;11441;57.164;-2.120;2023-07-13T06:01:11;100353.53;;;14.97;100.00
22550;BME280;11441;57.164;-2.120;2023-07-13T06:03:38;100354.38;;;15.26;100.00
22550;BME280;11441;57.164;-2.120;2023-07-13T06:06:07;100343.66;;;15.00;100.00
22550;BME280;11441;57.164;-2.120;2023-07-13T06:08:35;100358.31;;;15.22;100.00
22550;BME280;11441;57.164;-2.120;2023-07-13T06:11:11;100360.34;;;15.50;100.00
22550;BME280;11441;57.164;-2.120;2023-07-13T06:13:39;100353.56;;;15.62;100.00
22550;BME280;11441;57.164;-2.120;2023-07-13T06:16:07;100361.91;;;15.48;100.00
22550;BME280;11441;57.164;-2.120;2023-07-13T06:18:36;100367.44;;;15.62;100.00
22550;BME280;11441;57.164;-2.120;2023-07-13T06:21:12;100373.00;;;15.55;100.00
22550;BME280;11441;57.164;-2.120;2023-07-13T06:23:40;100384.50;;;15.64;100.00
22550;BME280;11441;57.164;-2.120;2023-07-13T06:26:07;100387.28;;;15.71;100.00
22550;BME280;11441;57.164;-2.120;2023-07-13T06:28:36;100388.09;;;15.79;100.00
22550;BME280;11441;57.164;-2.120;2023-07-13T06:31:06;100391.66;;;15.76;100.00
22550;BME280;11441;57.164;-2.120;2023-07-13T06:33:33;100390.03;;;15.60;100.00
22550;BME280;11441;57.164;-2.120;2023-07-13T06:36:05;100392.03;;;15.42;100.00
22550;BME280;11441;57.164;-2.120;2023-07-13T06:38:32;100403.53;;;15.58;100.00
22550;BME280;11441;57.164;-2.120;2023-07-13T06:41:17;100399.16;;;15.39;100.00
22550;BME280;11441;57.164;-2.120;2023-07-13T06:44:02;100403.94;;;15.71;100.00
22550;BME280;11441;57.164;-2.120;2023-07-13T06:46:29;100407.50;;;15.72;100.00
22550;BME280;11441;57.164;-2.120;2023-07-13T06:48:56;100411.09;;;15.79;100.00
22550;BME280;11441;57.164;-2.120;2023-07-13T06:51:23;100416.25;;;15.84;100.00
22550;BME280;11441;57.164;-2.120;2023-07-13T06:53:50;100415.84;;;15.79;100.00
22550;BME280;11441;57.164;-2.120;2023-07-13T06:56:17;100409.50;;;15.71;100.00
22550;BME280;11441;57.164;-2.120;2023-07-13T06:58:44;100411.91;;;15.83;100.00
22550;BME280;11441;57.164;-2.120;2023-07-13T07:01:10;100409.13;;;15.83;100.00
22550;BME280;11441;57.164;-2.120;2023-07-13T07:03:56;100423.00;;;15.91;100.00
22550;BME280;11441;57.164;-2.120;2023-07-13T07:06:24;100424.16;;;15.72;100.00
22550;BME280;11441;57.164;-2.120;2023-07-13T07:08:51;100427.34;;;15.77;100.00
22550;BME280;11441;57.164;-2.120;2023-07-13T07:11:22;100426.56;;;15.77;100.00
22550;BME280;11441;57.164;-2.120;2023-07-13T07:13:50;100423.78;;;15.80;100.00
22550;BME280;11441;57.164;-2.120;2023-07-13T07:16:18;100414.66;;;15.87;100.00
22550;BME280;11441;57.164;-2.120;2023-07-13T07:18:46;100427.34;;;15.88;100.00
22550;BME280;11441;57.164;-2.120;2023-07-13T07:21:13;100426.53;;;15.98;100.00
22550;BME280;11441;57.164;-2.120;2023-07-13T07:23:42;100430.09;;;16.20;100.00
22550;BME280;11441;57.164;-2.120;2023-07-13T07:26:09;100436.81;;;16.19;100.00
22550;BME280;11441;57.164;-2.120;2023-07-13T07:28:37;100432.47;;;16.18;100.00
22550;BME280;11441;57.164;-2.120;2023-07-13T07:31:06;100438.06;;;16.04;100.00
22550;BME280;11441;57.164;-2.120;2023-07-13T07:33:36;100436.84;;;16.09;100.00
22550;BME280;11441;57.164;-2.120;2023-07-13T07:36:03;100442.00;;;16.07;100.00
22550;BME280;11441;57.164;-2.120;2023-07-13T07:38:33;100432.88;;;16.10;100.00
22550;BME280;11441;57.164;-2.120;2023-07-13T07:41:04;100428.91;;;16.25;100.00
22550;BME280;11441;57.164;-2.120;2023-07-13T07:43:34;100422.50;;;16.43;100.00
22550;BME280;11441;57.164;-2.120;2023-07-13T07:46:02;100431.28;;;16.05;100.00
22550;BME280;11441;57.164;-2.120;2023-07-13T07:48:30;100433.66;;;16.21;100.00
22550;BME280;11441;57.164;-2.120;2023-07-13T07:50:57;100436.44;;;16.21;100.00
22550;BME280;11441;57.164;-2.120;2023-07-13T07:53:23;100443.94;;;16.38;100.00
22550;BME280;11441;57.164;-2.120;2023-07-13T07:55:50;100432.75;;;16.60;100.00
22550;BME280;11441;57.164;-2.120;2023-07-13T07:58:20;100447.03;;;16.66;100.00
22550;BME280;11441;57.164;-2.120;2023-07-13T08:00:50;100442.75;;;16.39;100.00
22550;BME280;11441;57.164;-2.120;2023-07-13T08:03:20;100429.22;;;16.45;100.00
22550;BME280;11441;57.164;-2.120;2023-07-13T08:05:53;100441.16;;;16.35;100.00
22550;BME280;11441;57.164;-2.120;2023-07-13T08:08:23;100447.13;;;16.26;100.00
22550;BME280;11441;57.164;-2.120;2023-07-13T08:10:50;100441.53;;;16.51;100.00
22550;BME280;11441;57.164;-2.120;2023-07-13T08:13:21;100448.19;;;16.75;100.00
22550;BME280;11441;57.164;-2.120;2023-07-13T08:15:48;100451.75;;;16.80;100.00
22550;BME280;11441;57.164;-2.120;2023-07-13T08:18:16;100442.19;;;16.95;100.00
22550;BME280;11441;57.164;-2.120;2023-07-13T08:20:43;100450.13;;;16.93;100.00
22550;BME280;11441;57.164;-2.120;2023-07-13T08:23:11;100450.19;;;16.71;100.00
22550;BME280;11441;57.164;-2.120;2023-07-13T08:25:38;100451.41;;;16.56;100.00
22550;BME280;11441;57.164;-2.120;2023-07-13T08:28:05;100446.19;;;16.76;100.00
22550;BME280;11441;57.164;-2.120;2023-07-13T08:30:32;100447.34;;;16.93;100.00
22550;BME280;11441;57.164;-2.120;2023-07-13T08:32:59;100436.22;;;16.96;100.00
22550;BME280;11441;57.164;-2.120;2023-07-13T08:35:26;100442.19;;;16.91;100.00
22550;BME280;11441;57.164;-2.120;2023-07-13T08:37:53;100446.94;;;16.98;100.00
22550;BME280;11441;57.164;-2.120;2023-07-13T08:40:39;100440.59;;;16.83;100.00
22550;BME280;11441;57.164;-2.120;2023-07-13T08:43:15;100438.63;;;16.80;100.00
22550;BME280;11441;57.164;-2.120;2023-07-13T08:46:05;100443.75;;;16.92;100.00
22550;BME280;11441;57.164;-2.120;2023-07-13T08:48:39;100450.06;;;17.07;100.00
22550;BME280;11441;57.164;-2.120;2023-07-13T08:53:46;100450.00;;;17.18;100.00
22550;BME280;11441;57.164;-2.120;2023-07-13T08:56:19;100446.88;;;17.09;100.00
22550;BME280;11441;57.164;-2.120;2023-07-13T08:58:51;100455.88;;;17.27;100.00
22550;BME280;11441;57.164;-2.120;2023-07-13T09:01:30;100456.72;;;17.28;100.00
22550;BME280;11441;57.164;-2.120;2023-07-13T09:04:16;100452.22;;;17.41;100.00
22550;BME280;11441;57.164;-2.120;2023-07-13T09:12:13;100450.69;;;17.37;100.00
22550;BME280;11441;57.164;-2.120;2023-07-13T09:14:50;100443.50;;;17.39;100.00
22550;BME280;11441;57.164;-2.120;2023-07-13T09:19:57;100444.19;;;17.58;100.00
22550;BME280;11441;57.164;-2.120;2023-07-13T09:22:32;100443.31;;;17.68;100.00
22550;BME280;11441;57.164;-2.120;2023-07-13T09:25:05;100443.19;;;17.82;100.00
22550;BME280;11441;57.164;-2.120;2023-07-13T09:27:43;100443.78;;;17.56;100.00
22550;BME280;11441;57.164;-2.120;2023-07-13T09:32:47;100436.28;;;17.49;100.00
22550;BME280;11441;57.164;-2.120;2023-07-13T09:35:19;100434.28;;;17.49;100.00
22550;BME280;11441;57.164;-2.120;2023-07-13T09:37:47;100434.91;;;17.12;100.00
22550;BME280;11441;57.164;-2.120;2023-07-13T09:40:25;100429.47;;;16.90;100.00
22550;BME280;11441;57.164;-2.120;2023-07-13T09:42:54;100438.63;;;16.80;100.00
22550;BME280;11441;57.164;-2.120;2023-07-13T09:45:28;100436.13;;;17.11;100.00
22550;BME280;11441;57.164;-2.120;2023-07-13T09:48:20;100439.03;;;16.86;100.00
22550;BME280;11441;57.164;-2.120;2023-07-13T09:50:46;100433.88;;;16.84;100.00
22550;BME280;11441;57.164;-2.120;2023-07-13T09:53:18;100433.06;;;16.80;100.00
22550;BME280;11441;57.164;-2.120;2023-07-13T09:55:47;100431.13;;;16.70;100.00
22550;BME280;11441;57.164;-2.120;2023-07-13T09:58:22;100454.16;;;16.63;100.00
22550;BME280;11441;57.164;-2.120;2023-07-13T10:03:52;100451.53;;;16.20;100.00
22550;BME280;11441;57.164;-2.120;2023-07-13T10:06:21;100451.53;;;15.98;100.00
22550;BME280;11441;57.164;-2.120;2023-07-13T10:08:52;100450.38;;;15.85;100.00
22550;BME280;11441;57.164;-2.120;2023-07-13T10:11:25;100455.91;;;15.99;100.00
22550;BME280;11441;57.164;-2.120;2023-07-13T10:16:25;100459.09;;;15.76;100.00
22550;BME280;11441;57.164;-2.120;2023-07-13T10:18:58;100462.25;;;15.71;100.00
22550;BME280;11441;57.164;-2.120;2023-07-13T10:21:35;100472.13;;;15.58;100.00
22550;BME280;11441;57.164;-2.120;2023-07-13T10:24:14;100468.59;;;15.75;100.00
22550;BME280;11441;57.164;-2.120;2023-07-13T10:26:48;100471.72;;;15.49;100.00
22550;BME280;11441;57.164;-2.120;2023-07-13T10:29:18;100468.91;;;15.38;100.00
22550;BME280;11441;57.164;-2.120;2023-07-13T10:31:47;100470.91;;;15.44;100.00
22550;BME280;11441;57.164;-2.120;2023-07-13T10:34:33;100484.03;;;15.58;100.00
22550;BME280;11441;57.164;-2.120;2023-07-13T10:37:00;100479.28;;;15.66;100.00
22550;BME280;11441;57.164;-2.120;2023-07-13T10:39:30;100486.78;;;15.51;100.00
22550;BME280;11441;57.164;-2.120;2023-07-13T10:42:05;100493.53;;;15.46;100.00
22550;BME280;11441;57.164;-2.120;2023-07-13T10:44:33;100491.84;;;15.20;100.00
22550;BME280;11441;57.164;-2.120;2023-07-13T10:47:15;100487.53;;;15.30;100.00
22550;BME280;11441;57.164;-2.120;2023-07-13T10:49:43;100496.63;;;15.23;100.00
22550;BME280;11441;57.164;-2.120;2023-07-13T10:55:03;100489.44;;;15.04;100.00
22550;BME280;11441;57.164;-2.120;2023-07-13T10:57:30;100482.38;;;15.28;100.00
22550;BME280;11441;57.164;-2.120;2023-07-13T11:02:31;100507.66;;;15.05;100.00
22550;BME280;11441;57.164;-2.120;2023-07-13T11:04:58;100501.78;;;15.21;100.00
22550;BME280;11441;57.164;-2.120;2023-07-13T11:07:28;100511.31;;;15.27;100.00
22550;BME280;11441;57.164;-2.120;2023-07-13T11:10:00;100503.03;;;15.35;100.00
22550;BME280;11441;57.164;-2.120;2023-07-13T11:12:52;100503.41;;;15.37;100.00
22550;BME280;11441;57.164;-2.120;2023-07-13T11:15:43;100507.34;;;15.32;100.00
22550;BME280;11441;57.164;-2.120;2023-07-13T11:18:22;100505.84;;;15.60;100.00
22550;BME280;11441;57.164;-2.120;2023-07-13T11:20:51;100506.66;;;15.68;100.00
22550;BME280;11441;57.164;-2.120;2023-07-13T11:23:27;100509.44;;;15.68;100.00
22550;BME280;11441;57.164;-2.120;2023-07-13T11:25:54;100507.84;;;15.70;100.00
22550;BME280;11441;57.164;-2.120;2023-07-13T11:28:23;100515.75;;;15.46;100.00
22550;BME280;11441;57.164;-2.120;2023-07-13T11:36:05;100518.53;;;15.50;100.00
22550;BME280;11441;57.164;-2.120;2023-07-13T11:38:38;100509.44;;;15.68;100.00
22550;BME280;11441;57.164;-2.120;2023-07-13T11:41:36;100509.81;;;15.55;100.00
22550;BME280;11441;57.164;-2.120;2023-07-13T11:44:14;100501.88;;;15.61;100.00
22550;BME280;11441;57.164;-2.120;2023-07-13T11:46:52;100501.06;;;15.50;100.00
22550;BME280;11441;57.164;-2.120;2023-07-13T11:49:26;100506.59;;;15.46;100.00
22550;BME280;11441;57.164;-2.120;2023-07-13T11:51:57;100503.53;;;15.76;100.00
22550;BME280;11441;57.164;-2.120;2023-07-13T11:54:28;100512.25;;;15.78;100.00
22550;BME280;11441;57.164;-2.120;2023-07-13T11:57:24;100508.28;;;15.87;100.00
22550;BME280;11441;57.164;-2.120;2023-07-13T11:59:54;100509.06;;;15.91;100.00
22550;BME280;11441;57.164;-2.120;2023-07-13T12:02:36;100512.63;;;16.02;100.00
22550;BME280;11441;57.164;-2.120;2023-07-13T12:05:05;100517.41;;;15.91;100.00
22550;BME280;11441;57.164;-2.120;2023-07-13T12:07:52;100507.88;;;15.84;100.00
22550;BME280;11441;57.164;-2.120;2023-07-13T12:10:25;100497.19;;;15.87;100.00
22550;BME280;11441;57.164;-2.120;2023-07-13T12:12:58;100499.56;;;16.13;100.00
22550;BME280;11441;57.164;-2.120;2023-07-13T12:15:38;100496.38;;;16.00;100.00
22550;BME280;11441;57.164;-2.120;2023-07-13T12:18:20;100497.19;;;15.97;100.00
22550;BME280;11441;57.164;-2.120;2023-07-13T12:20:49;100496.38;;;15.86;100.00
22550;BME280;11441;57.164;-2.120;2023-07-13T12:25:50;100492.03;;;15.89;100.00
22550;BME280;11441;57.164;-2.120;2023-07-13T12:28:35;100483.66;;;16.14;100.00
22550;BME280;11441;57.164;-2.120;2023-07-13T12:34:07;100484.44;;;16.39;100.00
22550;BME280;11441;57.164;-2.120;2023-07-13T12:36:36;100497.53;;;16.32;100.00
22550;BME280;11441;57.164;-2.120;2023-07-13T12:39:37;100497.50;;;16.53;100.00
22550;BME280;11441;57.164;-2.120;2023-07-13T12:42:23;100504.25;;;16.49;100.00
22550;BME280;11441;57.164;-2.120;2023-07-13T12:47:43;100501.50;;;16.45;100.00
22550;BME280;11441;57.164;-2.120;2023-07-13T12:50:17;100499.44;;;16.74;100.00
22550;BME280;11441;57.164;-2.120;2023-07-13T12:52:51;100503.34;;;16.99;100.00
22550;BME280;11441;57.164;-2.120;2023-07-13T12:55:20;100504.53;;;17.01;100.00
22550;BME280;11441;57.164;-2.120;2023-07-13T12:57:57;100503.69;;;17.08;100.00
22550;BME280;11441;57.164;-2.120;2023-07-13T13:00:29;100500.56;;;16.99;100.00
22550;BME280;11441;57.164;-2.120;2023-07-13T13:03:17;100498.34;;;17.42;100.00
22550;BME280;11441;57.164;-2.120;2023-07-13T13:08:54;100490.44;;;17.37;100.00
22550;BME280;11441;57.164;-2.120;2023-07-13T13:11:22;100497.78;;;16.99;100.00
22550;BME280;11441;57.164;-2.120;2023-07-13T13:13:50;100502.56;;;16.91;100.00
22550;BME280;11441;57.164;-2.120;2023-07-13T13:18:55;100509.75;;;16.81;100.00
22550;BME280;11441;57.164;-2.120;2023-07-13T13:21:24;100507.31;;;16.98;100.00
22550;BME280;11441;57.164;-2.120;2023-07-13T13:24:11;100498.16;;;17.04;100.00
22550;BME280;11441;57.164;-2.120;2023-07-13T13:26:39;100494.47;;;17.25;100.00
22550;BME280;11441;57.164;-2.120;2023-07-13T13:29:18;100517.56;;;17.19;100.00
22550;BME280;11441;57.164;-2.120;2023-07-13T13:31:46;100508.78;;;17.27;100.00
22550;BME280;11441;57.164;-2.120;2023-07-13T13:34:15;100513.84;;;17.47;100.00
22550;BME280;11441;57.164;-2.120;2023-07-13T13:36:43;100520.53;;;17.57;100.00